Time;durP1;ratioP1;P1;durP2;ratioP2;P2;SDS_P1;SDS_P2;PMS_P1;PMS_P2;Temp;Humidity;BMP_temperature;BMP_pressure;BME280_temperature;BME280_humidity;BME280_pressure;Samples;Min_cycle;Max_cycle;Signal;HPM_P1;HPM_P2
2021/01/24 00:01:12;;;;;;;5.15;3.70;;;19.80;44.90;;;;;;5063368;28;20713;-64
2021/01/24 00:03:37;;;;;;;5.53;3.20;;;19.80;44.80;;;;;;5066010;28;20029;-64
2021/01/24 00:06:03;;;;;;;4.55;3.38;;;19.90;44.70;;;;;;5066515;28;20062;-64
2021/01/24 00:08:28;;;;;;;3.63;3.33;;;19.90;44.70;;;;;;5064989;28;20060;-65
2021/01/24 00:10:54;;;;;;;6.22;3.55;;;19.80;44.70;;;;;;5049468;28;20046;-64
2021/01/24 00:13:19;;;;;;;4.50;3.30;;;19.90;44.70;;;;;;5065709;28;20032;-64
2021/01/24 00:15:44;;;;;;;7.15;3.70;;;19.90;44.70;;;;;;5048333;28;20043;-65
2021/01/24 00:18:10;;;;;;;6.35;3.92;;;19.90;44.70;;;;;;5047600;28;20025;-64
2021/01/24 00:20:35;;;;;;;4.25;2.80;;;19.90;44.60;;;;;;5021733;28;20037;-65
2021/01/24 00:23:01;;;;;;;3.95;3.20;;;19.90;44.60;;;;;;5065819;28;20047;-65
2021/01/24 00:25:26;;;;;;;3.55;2.97;;;19.90;44.60;;;;;;5048659;28;20410;-65
2021/01/24 00:27:52;;;;;;;4.45;3.00;;;19.90;44.60;;;;;;5031077;28;20040;-64
2021/01/24 00:30:18;;;;;;;4.03;3.08;;;19.80;44.70;;;;;;5047521;28;20171;-65
2021/01/24 00:32:43;;;;;;;3.88;2.92;;;19.80;44.80;;;;;;5066029;28;20037;-64
2021/01/24 00:35:09;;;;;;;8.90;3.20;;;19.80;44.70;;;;;;5047273;28;20486;-64
2021/01/24 00:37:35;;;;;;;5.10;3.15;;;19.80;44.70;;;;;;5047528;28;20052;-64
2021/01/24 00:40:01;;;;;;;3.78;2.75;;;19.80;44.60;;;;;;5048438;28;20135;-66
2021/01/24 00:42:26;;;;;;;3.83;2.60;;;19.80;44.60;;;;;;5025350;28;20392;-64
2021/01/24 00:44:51;;;;;;;3.70;2.95;;;19.80;44.70;;;;;;5063794;28;20061;-64
2021/01/24 00:47:17;;;;;;;2.97;2.60;;;19.80;44.70;;;;;;5065445;28;20130;-65
2021/01/24 00:49:42;;;;;;;3.55;3.05;;;19.70;44.70;;;;;;5065764;28;20483;-64
2021/01/24 00:52:09;;;;;;;5.68;3.10;;;19.70;44.60;;;;;;5064830;28;20430;-63
2021/01/24 00:54:35;;;;;;;3.88;2.60;;;19.70;44.70;;;;;;5065124;28;20047;-65
2021/01/24 00:57:00;;;;;;;4.05;3.17;;;19.70;44.70;;;;;;5065829;28;20025;-65
2021/01/24 00:59:26;;;;;;;3.22;2.63;;;19.70;44.70;;;;;;5065326;28;20029;-65
2021/01/24 01:01:51;;;;;;;3.55;3.10;;;19.70;44.60;;;;;;5064653;28;20085;-64
2021/01/24 01:04:17;;;;;;;3.65;2.97;;;19.70;44.60;;;;;;5065516;28;20029;-65
2021/01/24 01:06:42;;;;;;;3.85;3.00;;;19.60;44.60;;;;;;5064405;28;20392;-65
2021/01/24 01:09:08;;;;;;;3.45;3.00;;;19.60;44.50;;;;;;5064943;28;20040;-65
2021/01/24 01:11:33;;;;;;;3.65;3.25;;;19.60;44.60;;;;;;5064828;28;20048;-67
2021/01/24 01:13:59;;;;;;;3.35;3.05;;;19.60;44.50;;;;;;5047118;28;20037;-64
2021/01/24 01:16:24;;;;;;;3.55;3.17;;;19.60;44.50;;;;;;5064480;28;20036;-64
2021/01/24 01:18:50;;;;;;;3.50;3.20;;;19.60;44.50;;;;;;5064888;28;20051;-65
2021/01/24 01:21:15;;;;;;;3.53;3.22;;;19.60;44.40;;;;;;5065154;28;20037;-64
2021/01/24 01:23:41;;;;;;;4.40;2.80;;;19.60;44.40;;;;;;5064606;28;20037;-66
2021/01/24 01:26:06;;;;;;;3.53;3.22;;;19.50;44.40;;;;;;5064924;28;20494;-65
2021/01/24 01:28:32;;;;;;;3.53;3.20;;;19.50;44.40;;;;;;5065525;28;20044;-65
2021/01/24 01:30:57;;;;;;;5.38;3.20;;;19.50;44.40;;;;;;5064436;28;20028;-65
2021/01/24 01:33:23;;;;;;;3.08;2.72;;;19.50;44.40;;;;;;5064606;28;20502;-64
2021/01/24 01:35:48;;;;;;;3.55;2.88;;;19.50;44.40;;;;;;5064882;28;20040;-65
2021/01/24 01:38:14;;;;;;;3.42;3.13;;;19.50;44.40;;;;;;5064420;28;20035;-65
2021/01/24 01:40:39;;;;;;;3.55;3.00;;;19.50;44.30;;;;;;5064594;28;20030;-65
2021/01/24 01:43:05;;;;;;;2.95;2.65;;;19.50;44.30;;;;;;5064947;28;20496;-64
2021/01/24 01:45:30;;;;;;;3.40;3.10;;;19.50;44.30;;;;;;5063832;28;20032;-64
2021/01/24 01:47:57;;;;;;;3.30;2.55;;;19.50;44.30;;;;;;5064374;28;20024;-64
2021/01/24 01:50:23;;;;;;;3.83;3.38;;;19.40;44.20;;;;;;5046518;28;20510;-64
2021/01/24 01:52:48;;;;;;;3.08;2.72;;;19.40;44.20;;;;;;5064286;28;20048;-64
2021/01/24 01:55:14;;;;;;;3.38;2.80;;;19.50;44.20;;;;;;5064201;28;20040;-64
2021/01/24 01:57:39;;;;;;;2.50;2.30;;;19.40;44.20;;;;;;5064348;28;20036;-65
2021/01/24 02:00:09;;;;;;;3.35;2.88;;;19.50;44.20;;;;;;5064526;28;20071;-67
2021/01/24 02:02:37;;;;;;;3.08;2.78;;;19.40;44.20;;;;;;5064469;28;20045;-65
2021/01/24 02:05:26;;;;;;;3.65;3.13;;;19.40;44.20;;;;;;5046294;28;20028;-64
2021/01/24 02:08:02;;;;;;;3.00;2.63;;;19.40;44.30;;;;;;5045570;28;20403;-65
2021/01/24 02:10:56;;;;;;;2.75;2.55;;;19.40;44.20;;;;;;5047563;28;20033;-65
2021/01/24 02:13:40;;;;;;;2.90;2.70;;;19.40;44.30;;;;;;5058551;28;20550;-64
2021/01/24 02:16:05;;;;;;;3.20;2.83;;;19.30;44.30;;;;;;5047344;28;20032;-64
2021/01/24 02:18:31;;;;;;;3.45;2.70;;;19.30;44.30;;;;;;5046973;28;20036;-64
2021/01/24 02:21:11;;;;;;;3.20;2.90;;;19.30;44.30;;;;;;5045830;28;20610;-65
2021/01/24 02:23:37;;;;;;;2.83;2.50;;;19.30;44.40;;;;;;5045708;28;20036;-64
2021/01/24 02:26:34;;;;;;;2.90;2.58;;;19.20;44.30;;;;;;5045793;28;20479;-65
2021/01/24 02:29:20;;;;;;;2.72;2.33;;;19.20;44.40;;;;;;5048700;28;20066;-64
2021/01/24 02:31:46;;;;;;;2.80;2.28;;;19.20;44.50;;;;;;5046219;28;20040;-64
2021/01/24 02:34:12;;;;;;;2.83;2.63;;;19.20;44.40;;;;;;5045868;28;20056;-65
2021/01/24 02:36:38;;;;;;;2.72;2.53;;;19.20;44.60;;;;;;5045773;28;20040;-64
2021/01/24 02:39:04;;;;;;;2.83;2.45;;;19.20;44.50;;;;;;5046028;28;20028;-65
2021/01/24 02:41:30;;;;;;;2.38;2.15;;;19.10;44.50;;;;;;5029142;28;20082;-65
2021/01/24 02:43:55;;;;;;;2.58;2.33;;;19.10;44.50;;;;;;5063064;28;20493;-64
2021/01/24 02:46:21;;;;;;;2.53;2.33;;;19.10;44.50;;;;;;5029061;28;20032;-64
2021/01/24 02:48:46;;;;;;;2.65;2.45;;;19.10;44.40;;;;;;5063604;28;20043;-64
2021/01/24 02:51:15;;;;;;;2.85;2.20;;;19.00;44.70;;;;;;5044871;28;20039;-64
2021/01/24 02:53:40;;;;;;;2.55;2.15;;;19.00;44.20;;;;;;5045170;28;20478;-64
2021/01/24 02:56:06;;;;;;;2.65;2.45;;;19.00;44.10;;;;;;5063839;28;20521;-63
2021/01/24 02:58:31;;;;;;;2.40;2.20;;;19.00;44.10;;;;;;5028609;28;20041;-64
2021/01/24 03:00:57;;;;;;;2.20;2.00;;;18.90;44.00;;;;;;5029466;28;20031;-64
2021/01/24 03:03:23;;;;;;;2.30;2.10;;;18.90;44.00;;;;;;5063188;28;20552;-64
2021/01/24 03:05:48;;;;;;;2.83;2.33;;;18.90;43.90;;;;;;5063243;28;20127;-65
2021/01/24 03:08:14;;;;;;;2.60;2.17;;;18.90;44.00;;;;;;5064129;28;20218;-64
2021/01/24 03:10:40;;;;;;;2.22;2.03;;;18.90;43.90;;;;;;5045211;28;20060;-65
2021/01/24 03:13:20;;;;;;;2.63;2.42;;;18.80;43.90;;;;;;5045323;28;20040;-64
2021/01/24 03:15:46;;;;;;;2.88;2.55;;;18.80;44.50;;;;;;5044526;28;23056;-64
2021/01/24 03:18:15;;;;;;;2.83;2.30;;;18.80;43.90;;;;;;5046215;28;20078;-63
2021/01/24 03:20:40;;;;;;;2.88;2.60;;;18.70;43.90;;;;;;5038006;28;20028;-65
2021/01/24 03:23:06;;;;;;;2.33;2.13;;;18.70;43.90;;;;;;5029078;28;20514;-64
2021/01/24 03:25:31;;;;;;;2.83;2.55;;;18.70;43.80;;;;;;5028873;28;20116;-64
2021/01/24 03:27:57;;;;;;;2.20;2.00;;;18.60;43.90;;;;;;5045064;28;20371;-64
2021/01/24 03:30:22;;;;;;;2.58;1.90;;;18.60;44.00;;;;;;5048700;28;20036;-64
2021/01/24 03:32:48;;;;;;;2.85;2.20;;;18.70;44.00;;;;;;5067433;28;20033;-65
2021/01/24 03:35:14;;;;;;;2.40;2.20;;;18.70;44.10;;;;;;5067209;28;20445;-64
2021/01/24 03:37:39;;;;;;;2.72;1.73;;;18.80;44.20;;;;;;5058864;28;20033;-64
2021/01/24 03:40:05;;;;;;;2.30;2.10;;;18.80;44.10;;;;;;5067264;28;20075;-65
2021/01/24 03:42:31;;;;;;;1.95;1.85;;;18.90;44.10;;;;;;5066638;28;20063;-63
2021/01/24 03:44:56;;;;;;;2.60;2.15;;;19.00;44.00;;;;;;5066985;28;20669;-65
2021/01/24 03:47:22;;;;;;;2.30;1.90;;;19.10;43.80;;;;;;5066011;28;20025;-64
2021/01/24 03:49:47;;;;;;;2.20;1.98;;;19.30;43.60;;;;;;5067515;28;20498;-64
2021/01/24 03:52:13;;;;;;;3.63;2.53;;;19.30;43.30;;;;;;5066600;28;20036;-65
2021/01/24 03:54:38;;;;;;;2.20;2.00;;;19.50;43.10;;;;;;5065497;28;20040;-64
2021/01/24 03:57:04;;;;;;;1.98;1.80;;;19.60;43.00;;;;;;5065973;28;20029;-65
2021/01/24 03:59:29;;;;;;;2.17;1.98;;;19.70;42.80;;;;;;5066503;28;20449;-64
2021/01/24 04:01:55;;;;;;;2.35;2.03;;;19.70;42.60;;;;;;5066173;28;21643;-64
2021/01/24 04:04:20;;;;;;;2.17;1.98;;;19.80;42.50;;;;;;5066482;28;20036;-64
2021/01/24 04:06:46;;;;;;;2.15;1.92;;;19.90;42.40;;;;;;5048800;28;20036;-64
2021/01/24 04:09:11;;;;;;;2.20;2.00;;;20.00;42.20;;;;;;5065220;28;20024;-64
2021/01/24 04:11:37;;;;;;;2.60;2.13;;;20.00;42.20;;;;;;5066488;28;20032;-64
2021/01/24 04:14:02;;;;;;;2.10;1.83;;;20.10;42.10;;;;;;5066140;28;20082;-65
2021/01/24 04:16:28;;;;;;;2.17;1.98;;;20.10;41.90;;;;;;5066123;28;20529;-63
2021/01/24 04:18:53;;;;;;;2.58;2.10;;;20.20;41.90;;;;;;5048187;28;20662;-64
2021/01/24 04:21:19;;;;;;;1.95;1.75;;;20.20;41.70;;;;;;5066928;28;20667;-63
2021/01/24 04:23:44;;;;;;;2.45;2.25;;;20.20;41.60;;;;;;5065413;28;20028;-65
2021/01/24 04:26:10;;;;;;;1.67;1.58;;;20.30;41.60;;;;;;5066030;28;20052;-64
2021/01/24 04:28:35;;;;;;;1.90;1.80;;;20.30;41.60;;;;;;5065766;28;20044;-64
2021/01/24 04:31:01;;;;;;;1.92;1.80;;;20.30;41.60;;;;;;5066069;28;20032;-64
2021/01/24 04:33:26;;;;;;;2.30;2.10;;;20.30;41.50;;;;;;5065762;28;20174;-64
2021/01/24 04:35:52;;;;;;;2.90;2.20;;;20.30;41.40;;;;;;5066287;28;20089;-62
2021/01/24 04:38:17;;;;;;;1.73;1.63;;;20.20;41.40;;;;;;5065151;28;20526;-64
2021/01/24 04:40:43;;;;;;;1.92;1.77;;;20.20;41.30;;;;;;5065961;28;20047;-65
2021/01/24 04:43:08;;;;;;;1.75;1.65;;;20.20;41.30;;;;;;5047892;28;21875;-64
2021/01/24 04:45:35;;;;;;;1.77;1.67;;;20.20;41.20;;;;;;5047831;28;20043;-64
2021/01/24 04:48:01;;;;;;;1.60;1.50;;;20.10;41.20;;;;;;5047842;28;20032;-64
2021/01/24 04:50:26;;;;;;;1.60;1.50;;;20.10;41.10;;;;;;5047853;28;20085;-64
2021/01/24 04:52:52;;;;;;;1.67;1.48;;;20.10;41.30;;;;;;5047914;28;20032;-65
2021/01/24 04:55:17;;;;;;;2.38;1.88;;;20.10;41.30;;;;;;5047719;28;20055;-65
2021/01/24 04:57:43;;;;;;;2.40;1.63;;;20.10;41.20;;;;;;5047532;28;20043;-65
2021/01/24 05:00:09;;;;;;;1.73;1.63;;;20.10;41.30;;;;;;5047553;28;20101;-64
2021/01/24 05:02:35;;;;;;;1.73;1.63;;;20.00;41.40;;;;;;5065483;28;20048;-65
2021/01/24 05:05:01;;;;;;;1.90;1.70;;;20.00;41.30;;;;;;5047640;28;20738;-65
2021/01/24 05:07:26;;;;;;;1.80;1.67;;;20.00;41.40;;;;;;5064811;28;20055;-65
2021/01/24 05:09:52;;;;;;;1.92;1.67;;;20.00;41.50;;;;;;5065921;28;20025;-64
2021/01/24 05:12:18;;;;;;;1.50;1.40;;;19.90;41.40;;;;;;5065426;28;20055;-65
2021/01/24 05:14:44;;;;;;;1.55;1.38;;;19.90;41.50;;;;;;5064789;28;20033;-65
2021/01/24 05:17:09;;;;;;;2.15;1.75;;;19.90;41.50;;;;;;5014034;28;20027;-64
2021/01/24 05:19:35;;;;;;;2.55;1.70;;;19.90;41.50;;;;;;5030205;28;20047;-64
2021/01/24 05:22:03;;;;;;;2.90;1.63;;;19.80;41.60;;;;;;5064644;28;20033;-65
2021/01/24 05:24:29;;;;;;;2.47;1.20;;;19.80;41.60;;;;;;5064442;28;20024;-64
2021/01/24 05:26:54;;;;;;;2.08;1.60;;;19.80;41.60;;;;;;5065423;28;20033;-64
2021/01/24 05:29:24;;;;;;;1.50;1.40;;;19.80;41.70;;;;;;5046655;28;20033;-65
2021/01/24 05:31:50;;;;;;;1.38;1.27;;;19.70;41.70;;;;;;5064892;28;20040;-64
2021/01/24 05:34:17;;;;;;;2.00;1.52;;;19.70;41.60;;;;;;5060832;28;20086;-64
2021/01/24 05:36:43;;;;;;;2.20;1.27;;;19.70;41.70;;;;;;5064141;28;20058;-64
2021/01/24 05:39:09;;;;;;;1.60;1.40;;;19.70;41.70;;;;;;5064394;28;20498;-64
2021/01/24 05:41:34;;;;;;;1.67;1.45;;;19.70;41.80;;;;;;5064814;28;20042;-64
2021/01/24 05:44:00;;;;;;;2.70;1.40;;;19.70;41.70;;;;;;5064446;28;20120;-65
2021/01/24 05:46:31;;;;;;;2.30;1.67;;;19.60;41.80;;;;;;5047119;28;20032;-65
2021/01/24 05:48:57;;;;;;;2.70;1.30;;;19.70;41.80;;;;;;5064676;28;20119;-65
2021/01/24 05:51:22;;;;;;;1.65;1.45;;;19.70;41.80;;;;;;5063802;28;20773;-64
2021/01/24 05:53:48;;;;;;;2.97;1.38;;;19.60;41.90;;;;;;5030355;28;20036;-64
2021/01/24 05:56:18;;;;;;;2.42;1.25;;;19.60;41.80;;;;;;5065017;28;20451;-64
2021/01/24 05:58:44;;;;;;;1.80;1.60;;;19.60;41.90;;;;;;5064701;28;20070;-63
2021/01/24 06:01:09;;;;;;;1.50;1.40;;;19.60;41.90;;;;;;5064848;28;20032;-64
2021/01/24 06:03:35;;;;;;;2.75;1.20;;;19.60;41.90;;;;;;5030026;28;20055;-65
2021/01/24 06:06:01;;;;;;;1.85;1.45;;;19.50;41.90;;;;;;5063974;28;20041;-65
2021/01/24 06:08:26;;;;;;;1.48;1.38;;;19.60;41.90;;;;;;5064488;28;20052;-65
2021/01/24 06:10:52;;;;;;;1.33;1.23;;;19.50;41.80;;;;;;5064175;28;20509;-65
2021/01/24 06:13:26;;;;;;;2.25;1.50;;;19.50;41.90;;;;;;5045874;28;20101;-64
2021/01/24 06:15:52;;;;;;;1.92;1.73;;;19.50;41.90;;;;;;5056528;28;20102;-65
2021/01/24 06:18:36;;;;;;;1.38;1.27;;;19.50;41.90;;;;;;5063602;28;20035;-64
2021/01/24 06:21:02;;;;;;;2.08;1.60;;;19.50;41.90;;;;;;5024508;28;20403;-65
2021/01/24 06:23:58;;;;;;;1.85;1.70;;;19.50;41.90;;;;;;5046497;28;20028;-63
2021/01/24 06:26:24;;;;;;;2.67;1.65;;;19.50;41.90;;;;;;5032746;28;20036;-65
2021/01/24 06:28:49;;;;;;;2.20;1.40;;;19.50;41.90;;;;;;5045895;28;20043;-62
2021/01/24 06:31:16;;;;;;;1.55;1.40;;;19.50;42.00;;;;;;5046341;28;20043;-65
2021/01/24 06:33:43;;;;;;;1.40;1.30;;;19.50;41.90;;;;;;5063891;28;20450;-64
2021/01/24 06:36:08;;;;;;;2.53;1.50;;;19.50;42.00;;;;;;5063085;28;20112;-64
2021/01/24 06:38:38;;;;;;;1.52;1.40;;;19.50;42.00;;;;;;5063485;28;20123;-64
2021/01/24 06:41:11;;;;;;;1.25;1.10;;;19.50;42.10;;;;;;5045876;28;20051;-65
2021/01/24 06:43:37;;;;;;;1.20;1.10;;;19.50;42.10;;;;;;5063653;28;20106;-65
2021/01/24 06:46:03;;;;;;;1.63;1.48;;;19.50;42.00;;;;;;5064422;28;20888;-64
2021/01/24 06:48:48;;;;;;;2.08;1.20;;;19.50;42.10;;;;;;5063565;28;20043;-64
2021/01/24 06:51:32;;;;;;;1.55;1.40;;;19.50;42.10;;;;;;5058213;28;20122;-65
2021/01/24 06:53:58;;;;;;;1.25;1.15;;;19.50;42.20;;;;;;5063907;28;20130;-65
2021/01/24 06:56:26;;;;;;;1.20;1.10;;;19.50;42.10;;;;;;5057344;28;20088;-64
2021/01/24 06:58:51;;;;;;;1.20;1.08;;;19.50;42.20;;;;;;5062128;28;20028;-64
2021/01/24 07:01:25;;;;;;;1.45;1.33;;;19.50;42.10;;;;;;5063777;28;20038;-64
2021/01/24 07:04:21;;;;;;;1.75;1.13;;;19.50;42.10;;;;;;5058392;28;20039;-65
2021/01/24 07:06:49;;;;;;;2.05;1.25;;;19.50;42.20;;;;;;5060596;28;20032;-64
2021/01/24 07:09:24;;;;;;;1.10;1.00;;;19.50;42.20;;;;;;5066873;28;20158;-64
2021/01/24 07:11:52;;;;;;;0.85;0.85;;;19.50;42.20;;;;;;5067441;28;20051;-65
2021/01/24 07:14:35;;;;;;;1.23;0.93;;;19.50;42.10;;;;;;5067337;28;20033;-65
2021/01/24 07:17:09;;;;;;;1.25;1.15;;;19.50;42.20;;;;;;5067722;28;20032;-65
2021/01/24 07:19:40;;;;;;;1.30;1.20;;;19.50;42.20;;;;;;5066869;28;20094;-64
2021/01/24 07:22:05;;;;;;;1.23;1.13;;;19.50;42.20;;;;;;5066982;28;20032;-64
2021/01/24 07:24:31;;;;;;;3.42;1.10;;;19.50;42.20;;;;;;5066711;28;20685;-64
2021/01/24 07:26:56;;;;;;;2.22;1.00;;;19.50;42.20;;;;;;5049028;28;20040;-65
2021/01/24 07:29:22;;;;;;;1.77;1.00;;;19.40;42.20;;;;;;5049354;28;20068;-64
2021/01/24 07:31:47;;;;;;;1.38;1.27;;;19.50;42.30;;;;;;5049265;28;20566;-65
2021/01/24 07:34:13;;;;;;;1.63;1.13;;;19.50;42.30;;;;;;5048486;28;20094;-60
2021/01/24 07:36:42;;;;;;;1.38;1.13;;;19.40;42.30;;;;;;5066938;28;20082;-64
2021/01/24 07:39:08;;;;;;;1.25;1.13;;;19.40;42.30;;;;;;5049217;28;20138;-66
2021/01/24 07:41:33;;;;;;;1.08;0.98;;;19.40;42.30;;;;;;5067463;28;20538;-64
2021/01/24 07:43:59;;;;;;;1.85;1.17;;;19.40;42.40;;;;;;5059288;28;20025;-65
2021/01/24 07:46:25;;;;;;;1.23;1.10;;;19.40;42.50;;;;;;5067066;28;20120;-64
2021/01/24 07:48:50;;;;;;;1.20;1.10;;;19.40;42.40;;;;;;5066111;28;20047;-64
2021/01/24 07:51:16;;;;;;;1.45;1.20;;;19.40;42.50;;;;;;5066807;28;20032;-65
2021/01/24 07:53:42;;;;;;;1.63;1.00;;;19.40;42.40;;;;;;5066264;28;20851;-64
2021/01/24 07:56:07;;;;;;;1.25;1.02;;;19.40;42.50;;;;;;5066913;28;20036;-65
2021/01/24 07:58:33;;;;;;;1.23;1.13;;;19.40;42.50;;;;;;5048469;28;20032;-65
2021/01/24 08:00:58;;;;;;;1.40;1.30;;;19.40;42.60;;;;;;5066725;28;20075;-66
2021/01/24 08:03:26;;;;;;;1.10;0.95;;;19.40;42.70;;;;;;5066113;28;20056;-64
2021/01/24 08:05:52;;;;;;;3.92;1.20;;;19.40;42.80;;;;;;5047768;28;20044;-64
2021/01/24 08:08:17;;;;;;;3.22;1.00;;;19.30;42.80;;;;;;5048611;28;20123;-65
2021/01/24 08:10:43;;;;;;;2.63;1.02;;;19.40;42.90;;;;;;5065670;28;20039;-63
2021/01/24 08:13:08;;;;;;;4.53;1.60;;;19.30;42.90;;;;;;5066379;28;20040;-62
2021/01/24 08:15:34;;;;;;;2.38;1.48;;;19.40;43.00;;;;;;5065076;28;20044;-65
2021/01/24 08:17:59;;;;;;;2.40;1.02;;;19.30;42.90;;;;;;5047684;28;20060;-64
2021/01/24 08:20:26;;;;;;;2.03;1.10;;;19.40;43.10;;;;;;5048015;28;20058;-64
2021/01/24 08:22:51;;;;;;;3.20;1.38;;;19.40;43.00;;;;;;5048709;28;20020;-64
2021/01/24 08:25:17;;;;;;;3.90;1.17;;;19.40;43.00;;;;;;5066245;28;20518;-65
2021/01/24 08:27:44;;;;;;;2.58;1.63;;;19.40;43.10;;;;;;5065731;28;20495;-65
2021/01/24 08:30:10;;;;;;;3.05;1.48;;;19.30;43.10;;;;;;5066113;28;20035;-65
2021/01/24 08:32:43;;;;;;;2.95;1.63;;;19.40;43.10;;;;;;5048011;28;20044;-64
2021/01/24 08:35:11;;;;;;;4.80;2.03;;;19.30;43.00;;;;;;5049387;28;20032;-65
2021/01/24 08:37:37;;;;;;;2.35;1.50;;;19.30;42.90;;;;;;5047765;28;20043;-64
2021/01/24 08:40:06;;;;;;;2.28;1.50;;;19.40;43.00;;;;;;5048248;28;20044;-64
2021/01/24 08:42:48;;;;;;;4.20;1.45;;;19.40;42.90;;;;;;5065758;28;20028;-63
2021/01/24 08:45:19;;;;;;;3.92;1.52;;;19.30;42.70;;;;;;5065387;28;20033;-65
2021/01/24 08:47:58;;;;;;;3.78;1.48;;;19.40;42.80;;;;;;5048382;28;20567;-64
2021/01/24 08:50:24;;;;;;;4.47;1.60;;;19.40;42.70;;;;;;5065650;28;20056;-61
2021/01/24 08:53:00;;;;;;;1.40;1.30;;;19.40;42.60;;;;;;5065558;28;20037;-61
2021/01/24 08:55:25;;;;;;;1.80;1.40;;;19.40;42.50;;;;;;5058614;28;20101;-63
2021/01/24 08:57:51;;;;;;;2.58;1.20;;;19.40;42.50;;;;;;5065614;28;20053;-63
2021/01/24 09:00:17;;;;;;;1.67;1.58;;;19.40;42.40;;;;;;5047644;28;20029;-65
2021/01/24 09:02:43;;;;;;;1.40;1.20;;;19.40;42.30;;;;;;5065844;28;20025;-66
2021/01/24 09:05:15;;;;;;;2.95;1.20;;;19.40;42.30;;;;;;5064902;28;20040;-64
2021/01/24 09:07:41;;;;;;;3.17;1.50;;;19.40;42.20;;;;;;5064707;28;20040;-64
2021/01/24 09:10:20;;;;;;;1.50;1.30;;;19.40;42.20;;;;;;5065113;28;20067;-66
2021/01/24 09:12:56;;;;;;;2.30;1.55;;;19.50;42.80;;;;;;5059571;28;20033;-68
2021/01/24 09:15:22;;;;;;;1.55;1.20;;;19.50;42.00;;;;;;5026678;28;20060;-62
2021/01/24 09:17:48;;;;;;;1.95;1.30;;;19.50;42.00;;;;;;5061844;28;20036;-65
2021/01/24 09:20:13;;;;;;;2.65;1.50;;;19.50;42.00;;;;;;5048315;28;20103;-64
2021/01/24 09:22:39;;;;;;;6.80;4.00;;;19.50;42.10;;;;;;5055971;28;20437;-65
2021/01/24 09:25:05;;;;;;;24.23;12.60;;;19.50;42.50;;;;;;5064996;28;20601;-64
2021/01/24 09:27:30;;;;;;;27.85;15.73;;;19.50;42.80;;;;;;5064067;28;20414;-64
2021/01/24 09:29:56;;;;;;;44.42;19.92;;;19.50;43.00;;;;;;5064333;28;20029;-64
2021/01/24 09:32:21;;;;;;;35.25;19.15;;;19.40;43.10;;;;;;5064863;28;20040;-63
2021/01/24 09:34:47;;;;;;;34.90;17.85;;;19.40;43.30;;;;;;5065477;28;20029;-63
2021/01/24 09:37:12;;;;;;;36.10;19.27;;;19.40;43.40;;;;;;5064715;28;20029;-65
2021/01/24 09:39:38;;;;;;;43.13;20.08;;;19.40;43.50;;;;;;5064347;28;20028;-64
2021/01/24 09:42:04;;;;;;;36.28;19.08;;;19.40;43.60;;;;;;5064841;28;20063;-63
2021/01/24 09:44:29;;;;;;;36.45;18.83;;;19.40;43.70;;;;;;5064112;28;20193;-64
2021/01/24 09:46:55;;;;;;;36.83;17.75;;;19.40;43.80;;;;;;5064538;28;20060;-64
2021/01/24 09:49:20;;;;;;;37.20;17.13;;;19.30;43.80;;;;;;5064269;28;20027;-65
2021/01/24 09:51:45;;;;;;;36.30;15.85;;;19.30;43.90;;;;;;5064494;28;20033;-64
2021/01/24 09:54:14;;;;;;;29.42;14.73;;;19.20;43.90;;;;;;5064321;28;20426;-63
2021/01/24 09:56:40;;;;;;;31.48;15.27;;;19.20;43.90;;;;;;5064612;28;20044;-64
2021/01/24 09:59:05;;;;;;;31.77;14.10;;;19.20;44.00;;;;;;5064360;28;20028;-62
2021/01/24 10:01:31;;;;;;;30.75;14.43;;;19.10;44.70;;;;;;5056100;28;20028;-64
2021/01/24 10:03:56;;;;;;;29.55;13.15;;;19.20;44.10;;;;;;5064119;28;20029;-64
2021/01/24 10:06:22;;;;;;;25.00;12.50;;;19.20;44.10;;;;;;5063955;28;20048;-65
2021/01/24 10:08:47;;;;;;;24.48;12.43;;;19.20;44.10;;;;;;5064307;28;20452;-64
2021/01/24 10:11:13;;;;;;;27.20;11.57;;;19.20;44.20;;;;;;5064018;28;20044;-63
2021/01/24 10:13:39;;;;;;;27.25;11.35;;;19.20;44.10;;;;;;5063125;28;20032;-63
2021/01/24 10:16:05;;;;;;;21.00;11.13;;;19.20;44.10;;;;;;5056967;28;20332;-63
2021/01/24 10:18:31;;;;;;;22.10;9.95;;;19.20;44.10;;;;;;5064153;28;20530;-64
2021/01/24 10:20:57;;;;;;;21.40;9.98;;;19.20;44.00;;;;;;5063850;28;20028;-63
2021/01/24 10:23:23;;;;;;;23.05;10.25;;;19.20;44.00;;;;;;5063593;28;20036;-63
2021/01/24 10:25:50;;;;;;;20.45;10.32;;;19.30;44.10;;;;;;5064753;28;20032;-63
2021/01/24 10:28:16;;;;;;;22.13;9.63;;;19.30;44.00;;;;;;5066015;28;20028;-63
2021/01/24 10:30:41;;;;;;;24.13;9.93;;;19.40;44.00;;;;;;5046048;28;20041;-62
2021/01/24 10:33:07;;;;;;;17.55;8.13;;;19.40;43.90;;;;;;5063575;28;20040;-63
2021/01/24 10:35:32;;;;;;;15.90;8.07;;;19.40;43.80;;;;;;5064022;28;20445;-63
2021/01/24 10:37:58;;;;;;;20.48;8.10;;;19.50;43.80;;;;;;5063192;28;20568;-63
2021/01/24 10:40:23;;;;;;;14.57;6.28;;;19.50;43.70;;;;;;5063338;28;20033;-63
2021/01/24 10:42:49;;;;;;;14.38;6.28;;;19.50;43.60;;;;;;5063464;28;20406;-64
2021/01/24 10:45:15;;;;;;;13.95;6.40;;;19.50;43.60;;;;;;5063536;28;20406;-63
2021/01/24 10:47:40;;;;;;;17.65;6.32;;;19.60;43.70;;;;;;5062991;28;20044;-64
2021/01/24 10:50:07;;;;;;;15.75;6.32;;;19.60;43.60;;;;;;5063661;28;20048;-64
2021/01/24 10:52:32;;;;;;;14.65;6.05;;;19.60;43.60;;;;;;5045579;28;20112;-64
2021/01/24 10:54:58;;;;;;;10.77;5.53;;;19.60;43.50;;;;;;5045697;28;20598;-63
2021/01/24 10:57:23;;;;;;;13.25;5.57;;;19.60;43.50;;;;;;5062646;28;20033;-63
2021/01/24 10:59:49;;;;;;;10.32;5.60;;;19.70;43.50;;;;;;5063517;28;20142;-60
2021/01/24 11:02:14;;;;;;;10.20;5.22;;;19.70;43.50;;;;;;5063737;28;20044;-59
2021/01/24 11:04:40;;;;;;;15.65;5.60;;;19.70;43.40;;;;;;5062867;28;20124;-64
2021/01/24 11:07:05;;;;;;;11.77;5.28;;;19.70;43.30;;;;;;5063090;28;20052;-63
2021/01/24 11:09:31;;;;;;;9.68;5.25;;;19.70;43.40;;;;;;5063448;28;20029;-63
2021/01/24 11:11:57;;;;;;;10.75;4.95;;;19.70;43.30;;;;;;5063376;28;20502;-64
2021/01/24 11:14:22;;;;;;;9.88;5.43;;;19.70;43.40;;;;;;5063849;28;20124;-64
2021/01/24 11:16:47;;;;;;;14.45;5.10;;;19.70;43.40;;;;;;5062994;28;20036;-63
2021/01/24 11:19:13;;;;;;;9.68;4.90;;;19.70;43.40;;;;;;5063725;28;20457;-64
2021/01/24 11:21:38;;;;;;;8.60;5.10;;;19.70;43.50;;;;;;5063568;28;20798;-63
2021/01/24 11:24:04;;;;;;;9.38;4.70;;;19.70;43.50;;;;;;5063637;28;20029;-57
2021/01/24 11:26:30;;;;;;;10.38;4.95;;;19.60;43.50;;;;;;5062828;28;20035;-60
2021/01/24 11:28:55;;;;;;;9.18;4.90;;;19.60;43.50;;;;;;5063698;28;20032;-64
2021/01/24 11:31:21;;;;;;;8.05;4.10;;;19.60;43.60;;;;;;5063380;28;20071;-64
2021/01/24 11:33:48;;;;;;;9.77;4.13;;;19.60;43.60;;;;;;5062901;28;20127;-64
2021/01/24 11:36:14;;;;;;;6.28;3.72;;;19.50;43.60;;;;;;5062855;28;20032;-60
2021/01/24 11:38:39;;;;;;;11.38;4.93;;;19.60;43.60;;;;;;5062432;28;20033;-64
2021/01/24 11:41:05;;;;;;;10.23;4.65;;;19.50;43.60;;;;;;5063059;28;20078;-63
2021/01/24 11:43:31;;;;;;;9.48;3.75;;;19.50;43.60;;;;;;5063265;28;20028;-64
2021/01/24 11:45:57;;;;;;;5.80;3.30;;;19.50;43.70;;;;;;5063656;28;20086;-64
2021/01/24 11:48:23;;;;;;;6.10;3.65;;;19.50;43.70;;;;;;5063133;28;20035;-63
2021/01/24 11:50:49;;;;;;;7.72;3.20;;;19.50;43.70;;;;;;5065448;28;20693;-57
2021/01/24 11:53:16;;;;;;;7.30;3.60;;;19.50;43.70;;;;;;5066355;28;20064;-63
2021/01/24 11:55:42;;;;;;;7.72;3.33;;;19.50;43.70;;;;;;5066361;28;20036;-63
2021/01/24 11:58:07;;;;;;;6.45;3.72;;;19.50;43.80;;;;;;5066963;28;20056;-63
2021/01/24 12:00:33;;;;;;;7.45;3.95;;;19.50;43.80;;;;;;5066262;28;20531;-64
2021/01/24 12:02:58;;;;;;;8.73;3.08;;;19.50;43.80;;;;;;5066999;28;20039;-63
2021/01/24 12:05:23;;;;;;;5.85;3.38;;;19.50;43.80;;;;;;5066272;28;20044;-64
2021/01/24 12:07:49;;;;;;;7.05;3.95;;;19.50;43.80;;;;;;5066518;28;20491;-64
2021/01/24 12:10:14;;;;;;;8.70;4.20;;;19.50;43.80;;;;;;5066629;28;20112;-64
2021/01/24 12:12:40;;;;;;;6.75;3.03;;;19.50;43.80;;;;;;5066559;28;20028;-62
2021/01/24 12:15:06;;;;;;;5.43;3.20;;;19.50;43.70;;;;;;5066090;28;20538;-64
2021/01/24 12:17:32;;;;;;;4.60;2.67;;;19.50;43.80;;;;;;5065648;28;20475;-64
2021/01/24 12:19:57;;;;;;;5.10;2.67;;;19.50;43.80;;;;;;5067076;28;20036;-64
2021/01/24 12:22:23;;;;;;;7.82;3.30;;;19.50;43.70;;;;;;5065195;28;20025;-63
2021/01/24 12:24:48;;;;;;;8.43;2.92;;;19.50;43.70;;;;;;5066009;28;20529;-62
2021/01/24 12:27:14;;;;;;;4.55;2.92;;;19.50;43.70;;;;;;5066134;28;20070;-63
2021/01/24 12:29:40;;;;;;;7.28;2.38;;;19.50;43.80;;;;;;5065919;28;20044;-63
2021/01/24 12:32:06;;;;;;;7.15;2.90;;;19.50;43.90;;;;;;5066332;28;20103;-63
2021/01/24 12:34:31;;;;;;;5.85;2.53;;;19.50;43.60;;;;;;5066276;28;20052;-63
2021/01/24 12:36:57;;;;;;;5.22;2.33;;;19.50;43.60;;;;;;5064982;28;20036;-63
2021/01/24 12:39:22;;;;;;;5.47;2.88;;;19.50;43.60;;;;;;5066343;28;20127;-60
2021/01/24 12:41:48;;;;;;;3.70;2.42;;;19.50;43.60;;;;;;5065954;28;20036;-58
2021/01/24 12:44:13;;;;;;;3.85;2.38;;;19.50;43.60;;;;;;5065604;28;20025;-60